CWLI

Liverpool Bay Airport

Northwest Territories, Canada
METAR CWLI 271100Z AUTO 02009KT ////SM //// OVC011 M05/M06 A2994
Observed Flight Rules
May-27 @ 11:00 UTC (an hour ago)
Wind Clouds
20° at 9 knots
  • Overcast at 1,100' AGL
Temperatures Readings
Current -5°C / 23°F
Dewpoint -6°C / 21°F
Humidity 93%
Altimeter 29.94" Hg
Pressure 1014 hPa
Elevation 102
METAR CWLI 271100Z AUTO 02009KT ////SM //// OVC011 M05/M06 A2994
Observed Flight Rules
May-27 @ 11:00 UTC
(an hour ago)
Wind
20° at 9 knots
Clouds
  • Overcast at 1,100' AGL
Temperature Dewpoint
-5°C / 23°F -6°C / 21°F
Humidity Altimeter Pressure
93% 29.94" Hg 1014 hPa